Time;durP1;ratioP1;P1;durP2;ratioP2;P2;SDS_P1;SDS_P2;PMS_P1;PMS_P2;Temp;Humidity;BMP_temperature;BMP_pressure;BME280_temperature;BME280_humidity;BME280_pressure;Samples;Min_cycle;Max_cycle;Signal;HPM_P1;HPM_P2
2022/02/08 00:00:04;;;;;;;12.07;2.80;;;2.90;99.90;;;;;;4140487;28;20466;-76
2022/02/08 00:02:09;;;;;;;18.17;2.90;;;2.80;99.90;;;;;;4135023;28;21004;-75
2022/02/08 00:04:12;;;;;;;7.73;2.53;;;2.80;99.90;;;;;;4137221;28;20494;-75
2022/02/08 00:06:29;;;;;;;10.97;2.70;;;2.80;99.90;;;;;;4139369;28;20904;-75
2022/02/08 00:08:31;;;;;;;9.33;2.07;;;2.70;99.90;;;;;;4148111;28;20462;-75
2022/02/08 00:10:33;;;;;;;10.87;2.50;;;2.70;99.90;;;;;;4149036;28;20532;-75
2022/02/08 00:12:34;;;;;;;9.20;2.40;;;2.70;99.90;;;;;;4148480;28;20482;-75
2022/02/08 00:14:36;;;;;;;14.03;2.83;;;2.60;99.90;;;;;;4159316;28;20516;-75
2022/02/08 00:16:38;;;;;;;8.17;2.10;;;2.60;99.90;;;;;;4147336;28;20560;-75
2022/02/08 00:18:40;;;;;;;7.03;1.80;;;2.60;99.90;;;;;;4149258;28;20462;-75
2022/02/08 00:20:43;;;;;;;13.63;2.10;;;2.40;99.90;;;;;;4149050;28;20477;-75
2022/02/08 00:22:45;;;;;;;9.63;2.37;;;2.50;99.90;;;;;;4139541;28;20497;-75
2022/02/08 00:24:47;;;;;;;11.50;3.07;;;2.40;99.90;;;;;;4151126;28;20472;-75
2022/02/08 00:26:49;;;;;;;7.77;2.13;;;2.40;99.90;;;;;;4159558;28;20453;-75
2022/02/08 00:28:51;;;;;;;9.40;2.37;;;2.40;99.90;;;;;;4145632;28;20816;-75
2022/02/08 00:30:52;;;;;;;8.90;2.50;;;2.40;99.90;;;;;;4141599;28;20830;-75
2022/02/08 00:32:54;;;;;;;9.20;2.33;;;2.30;99.90;;;;;;4139838;28;20486;-76
2022/02/08 00:34:56;;;;;;;10.57;2.63;;;2.30;99.90;;;;;;4134286;28;20470;-75
2022/02/08 00:36:59;;;;;;;6.37;2.20;;;2.30;99.90;;;;;;4134647;28;20532;-75
2022/02/08 00:39:01;;;;;;;8.63;2.43;;;2.30;99.90;;;;;;4148082;28;20601;-76
2022/02/08 00:41:03;;;;;;;14.03;2.73;;;2.20;99.90;;;;;;4143751;28;20522;-75
2022/02/08 00:43:06;;;;;;;8.13;2.57;;;2.20;99.90;;;;;;4138743;28;20548;-77
2022/02/08 00:45:22;;;;;;;8.73;2.13;;;2.20;99.90;;;;;;4147935;28;20465;-75
2022/02/08 00:47:30;;;;;;;7.90;2.43;;;2.20;99.90;;;;;;4138373;28;20474;-75
2022/02/08 00:49:39;;;;;;;7.03;2.83;;;2.20;99.90;;;;;;4147734;28;20467;-75
2022/02/08 00:51:44;;;;;;;7.57;2.80;;;2.10;99.90;;;;;;4147328;28;20506;-75
2022/02/08 00:53:47;;;;;;;8.83;2.83;;;2.10;99.90;;;;;;4144743;28;20466;-74
2022/02/08 00:55:49;;;;;;;8.73;3.60;;;2.10;99.90;;;;;;4143294;28;20523;-77
2022/02/08 00:57:50;;;;;;;7.50;2.93;;;2.10;99.90;;;;;;4141430;28;20505;-75
2022/02/08 00:59:52;;;;;;;7.90;2.80;;;2.10;99.90;;;;;;4147786;28;20466;-75
2022/02/08 01:01:54;;;;;;;8.30;3.20;;;2.10;99.90;;;;;;4145979;28;20758;-75
2022/02/08 01:03:56;;;;;;;8.73;3.33;;;2.00;99.90;;;;;;4144983;28;21025;-78
2022/02/08 01:06:04;;;;;;;9.43;3.10;;;2.00;99.90;;;;;;4148629;28;20477;-75
2022/02/08 01:08:06;;;;;;;11.23;2.80;;;2.00;99.90;;;;;;4148246;28;20493;-75
2022/02/08 01:10:11;;;;;;;10.60;3.37;;;2.00;99.90;;;;;;4148941;28;20475;-75
2022/02/08 01:12:14;;;;;;;7.63;3.27;;;2.00;99.90;;;;;;4147335;28;20486;-75
2022/02/08 01:14:16;;;;;;;9.20;3.50;;;1.90;99.90;;;;;;4145174;28;20685;-76
2022/02/08 01:16:18;;;;;;;8.33;3.40;;;1.90;99.90;;;;;;4146527;28;20465;-76
2022/02/08 01:18:19;;;;;;;9.20;3.53;;;1.90;99.90;;;;;;4148062;28;20469;-76
2022/02/08 01:20:29;;;;;;;7.00;3.27;;;1.90;99.90;;;;;;4148937;28;20524;-75
2022/02/08 01:22:31;;;;;;;9.13;3.30;;;1.90;99.90;;;;;;4146997;28;20505;-75
2022/02/08 01:24:32;;;;;;;10.07;3.50;;;1.90;99.90;;;;;;4139601;28;20887;-75
2022/02/08 01:26:44;;;;;;;10.63;4.03;;;1.90;99.90;;;;;;4147700;28;20535;-75
2022/02/08 01:28:52;;;;;;;9.37;3.40;;;1.80;99.90;;;;;;4148941;28;20543;-76
2022/02/08 01:31:00;;;;;;;8.60;3.60;;;1.80;99.90;;;;;;4147171;28;20841;-75
2022/02/08 01:33:23;;;;;;;10.60;3.90;;;1.80;99.90;;;;;;4139528;28;20935;-76
2022/02/08 01:35:42;;;;;;;11.23;3.57;;;1.80;99.90;;;;;;4133001;28;20481;-75
2022/02/08 01:37:50;;;;;;;10.47;3.57;;;1.80;99.90;;;;;;4135053;28;20470;-76
2022/02/08 01:40:04;;;;;;;6.30;3.40;;;1.80;99.90;;;;;;4146527;28;20492;-75
2022/02/08 01:42:33;;;;;;;6.60;3.50;;;1.80;99.90;;;;;;4134713;28;20986;-75
2022/02/08 01:44:40;;;;;;;9.33;3.70;;;1.80;99.90;;;;;;4150304;28;20495;-75
2022/02/08 01:47:05;;;;;;;15.47;3.67;;;1.80;99.90;;;;;;4141906;28;20881;-77
2022/02/08 01:49:30;;;;;;;10.50;4.33;;;1.80;99.90;;;;;;4150069;28;20527;-75
2022/02/08 01:51:32;;;;;;;10.20;3.77;;;1.70;99.90;;;;;;4147808;28;20488;-75
2022/02/08 01:53:33;;;;;;;12.57;3.97;;;1.70;99.90;;;;;;4148096;28;20465;-75
2022/02/08 01:55:37;;;;;;;7.70;4.10;;;1.70;99.90;;;;;;4148449;28;20515;-75
2022/02/08 01:57:41;;;;;;;10.60;3.90;;;1.70;99.90;;;;;;4146082;28;20462;-76
2022/02/08 01:59:45;;;;;;;14.57;4.23;;;1.70;99.90;;;;;;4140961;28;20516;-75
2022/02/08 02:01:47;;;;;;;9.23;3.90;;;1.70;99.90;;;;;;4137723;28;20501;-75
2022/02/08 02:03:49;;;;;;;9.87;4.20;;;1.60;99.90;;;;;;4147009;28;20486;-75
2022/02/08 02:05:52;;;;;;;14.90;4.53;;;1.60;99.90;;;;;;4140007;28;20533;-75
2022/02/08 02:07:58;;;;;;;11.77;3.90;;;1.70;99.90;;;;;;4131642;28;20443;-75
2022/02/08 02:10:00;;;;;;;9.10;4.17;;;1.70;99.90;;;;;;4145436;28;21033;-75
2022/02/08 02:12:01;;;;;;;11.20;4.00;;;1.70;99.90;;;;;;4141990;28;20531;-75
2022/02/08 02:14:07;;;;;;;16.03;4.37;;;1.70;99.90;;;;;;4146685;28;20516;-75
2022/02/08 02:16:10;;;;;;;9.63;4.40;;;1.70;99.90;;;;;;4146446;28;20485;-75
2022/02/08 02:18:12;;;;;;;12.10;3.90;;;1.70;99.90;;;;;;4147555;28;20888;-75
2022/02/08 02:20:14;;;;;;;8.87;3.70;;;1.70;99.90;;;;;;4144335;28;20459;-76
2022/02/08 02:22:16;;;;;;;12.70;4.20;;;1.70;99.90;;;;;;4143491;28;20461;-76
2022/02/08 02:24:20;;;;;;;16.53;4.40;;;1.70;99.90;;;;;;4137296;28;20493;-76
2022/02/08 02:26:22;;;;;;;7.40;3.93;;;1.80;99.90;;;;;;4146264;28;20453;-77
2022/02/08 02:28:25;;;;;;;13.57;4.47;;;1.80;99.90;;;;;;4147368;28;20456;-77
2022/02/08 02:30:28;;;;;;;15.23;4.50;;;1.80;99.90;;;;;;4144217;28;20505;-75
2022/02/08 02:32:30;;;;;;;10.17;4.57;;;1.90;99.90;;;;;;4135954;28;20469;-75
2022/02/08 02:34:36;;;;;;;14.33;4.70;;;1.90;99.90;;;;;;4147323;28;20512;-76
2022/02/08 02:36:41;;;;;;;8.40;4.10;;;1.90;99.90;;;;;;4140388;28;20480;-75
2022/02/08 02:38:43;;;;;;;13.13;4.37;;;2.00;99.90;;;;;;4147940;28;20998;-75
2022/02/08 02:40:46;;;;;;;16.47;5.00;;;2.00;99.90;;;;;;4142530;28;20474;-75
2022/02/08 02:42:48;;;;;;;12.00;4.57;;;2.00;99.90;;;;;;4145849;28;20492;-75
2022/02/08 02:44:49;;;;;;;9.00;4.30;;;2.00;99.90;;;;;;4147199;28;20497;-75
2022/02/08 02:46:52;;;;;;;10.43;4.17;;;2.00;99.90;;;;;;4146936;28;20465;-76
2022/02/08 02:48:54;;;;;;;11.27;3.90;;;2.10;99.90;;;;;;4147582;28;20528;-77
2022/02/08 02:50:56;;;;;;;9.33;3.80;;;2.10;99.90;;;;;;4146807;28;20535;-75
2022/02/08 02:52:57;;;;;;;12.47;4.30;;;2.10;99.90;;;;;;4136449;28;20467;-76
2022/02/08 02:54:59;;;;;;;15.63;4.03;;;2.10;99.90;;;;;;4141161;28;20894;-75
2022/02/08 02:57:03;;;;;;;11.20;4.33;;;2.10;99.90;;;;;;4145234;28;20474;-75
2022/02/08 02:59:05;;;;;;;9.70;4.07;;;2.10;99.90;;;;;;4155303;28;20752;-76
2022/02/08 03:01:21;;;;;;;13.10;4.83;;;2.10;99.90;;;;;;4150605;28;20507;-75
2022/02/08 03:03:43;;;;;;;9.97;4.03;;;2.20;99.90;;;;;;4147097;28;20466;-76
2022/02/08 03:17:37;;;;;;;13.27;4.60;;;2.30;99.90;;;;;;4145092;28;22066;-76
2022/02/08 03:19:39;;;;;;;8.27;3.90;;;2.30;99.90;;;;;;4142923;28;20469;-76
2022/02/08 03:21:41;;;;;;;10.50;4.40;;;2.30;99.90;;;;;;4140038;28;20548;-75
2022/02/08 03:23:43;;;;;;;7.93;4.43;;;2.40;99.90;;;;;;4138964;28;20476;-75
2022/02/08 03:25:44;;;;;;;8.13;4.17;;;2.40;99.90;;;;;;4140017;28;20462;-75
2022/02/08 03:27:48;;;;;;;9.43;4.17;;;2.40;99.90;;;;;;4149588;28;20967;-75
2022/02/08 03:29:49;;;;;;;7.13;3.70;;;2.50;99.90;;;;;;4145731;28;21260;-75
2022/02/08 03:31:51;;;;;;;12.73;4.27;;;2.50;99.90;;;;;;4147760;28;20822;-75
2022/02/08 03:33:53;;;;;;;17.47;4.27;;;2.50;99.90;;;;;;4134131;28;20463;-75
2022/02/08 03:35:56;;;;;;;10.20;3.80;;;2.50;99.90;;;;;;4148658;28;20459;-75
2022/02/08 03:38:03;;;;;;;13.03;4.27;;;2.60;99.90;;;;;;4153905;28;20552;-77
2022/02/08 03:40:10;;;;;;;10.47;3.77;;;2.60;99.90;;;;;;4151139;28;20554;-77
2022/02/08 03:42:18;;;;;;;11.53;4.17;;;2.60;99.90;;;;;;4149560;28;20823;-77
2022/02/08 03:44:30;;;;;;;10.73;4.03;;;2.60;99.90;;;;;;4137424;28;20486;-77
2022/02/08 03:46:32;;;;;;;10.33;3.53;;;2.60;99.90;;;;;;4143687;28;20454;-77
2022/02/08 03:48:35;;;;;;;10.13;4.10;;;2.70;99.90;;;;;;4150453;28;20968;-76
2022/02/08 03:50:37;;;;;;;13.43;4.10;;;2.70;99.90;;;;;;4148733;28;20486;-75
2022/02/08 03:52:39;;;;;;;10.10;3.57;;;2.70;99.90;;;;;;4144031;28;20462;-76
2022/02/08 03:54:41;;;;;;;9.57;4.23;;;2.70;99.90;;;;;;4144444;28;20459;-76
2022/02/08 03:56:43;;;;;;;9.00;3.70;;;2.70;99.90;;;;;;4139577;28;20475;-75
2022/02/08 03:58:45;;;;;;;8.23;3.37;;;2.70;99.90;;;;;;4134625;28;20809;-75
2022/02/08 04:01:05;;;;;;;10.23;3.70;;;2.80;99.90;;;;;;4137620;28;20482;-75
2022/02/08 04:03:07;;;;;;;13.00;4.20;;;2.80;99.90;;;;;;4147329;28;20569;-75
2022/02/08 04:05:17;;;;;;;13.87;4.90;;;2.80;99.90;;;;;;4148347;28;20498;-75
2022/02/08 04:07:23;;;;;;;10.97;3.87;;;3.00;99.90;;;;;;4148969;28;20477;-75
2022/02/08 04:09:25;;;;;;;8.17;3.93;;;2.90;99.90;;;;;;4156908;28;20470;-75
2022/02/08 04:11:26;;;;;;;15.53;3.63;;;2.90;99.90;;;;;;4148202;28;20474;-75
2022/02/08 04:13:34;;;;;;;11.13;3.83;;;2.90;99.90;;;;;;4139921;28;20516;-76
2022/02/08 04:15:49;;;;;;;11.33;3.77;;;2.90;99.90;;;;;;4150254;28;20542;-76
2022/02/08 04:32:12;;;;;;;10.20;3.33;;;3.20;99.90;;;;;;4141957;28;20510;-76
2022/02/08 04:34:40;;;;;;;9.50;3.40;;;3.20;99.90;;;;;;4134663;28;20456;-76
2022/02/08 04:39:35;;;;;;;13.93;3.67;;;3.20;99.90;;;;;;4206071;28;20601;-75
2022/02/08 04:41:42;;;;;;;13.53;3.50;;;3.30;99.90;;;;;;4186237;28;20926;-76
2022/02/08 04:43:58;;;;;;;9.53;3.00;;;3.30;99.90;;;;;;4177015;28;20458;-75
2022/02/08 04:46:07;;;;;;;9.30;3.10;;;3.30;99.90;;;;;;4203768;28;20459;-75
2022/02/08 04:48:19;;;;;;;7.97;2.90;;;3.40;99.90;;;;;;4184981;28;20479;-77
2022/02/08 04:50:21;;;;;;;7.90;3.10;;;3.40;99.90;;;;;;4192573;28;20832;-77
2022/02/08 04:52:25;;;;;;;9.93;3.03;;;3.40;99.90;;;;;;4189483;28;20468;-76
2022/02/08 04:54:35;;;;;;;7.47;3.20;;;3.40;99.90;;;;;;4193270;28;20464;-76
2022/02/08 04:57:04;;;;;;;9.53;3.00;;;3.40;99.90;;;;;;4191528;28;20559;-76
2022/02/08 04:59:20;;;;;;;11.37;3.50;;;3.40;99.90;;;;;;4179170;28;20484;-75
2022/02/08 05:01:28;;;;;;;11.73;3.20;;;3.50;99.90;;;;;;4178261;28;20516;-76
2022/02/08 05:34:36;;;;;;;10.67;2.30;;;3.60;99.90;;;;;;4191680;28;20500;-76
2022/02/08 05:43:46;;;;;;;8.47;2.03;;;3.70;99.90;;;;;;4192756;28;20523;-75
2022/02/08 05:46:05;;;;;;;9.47;2.73;;;3.70;99.90;;;;;;4184606;28;20898;-75
2022/02/08 05:48:10;;;;;;;5.33;1.83;;;3.80;99.90;;;;;;4193162;28;20497;-76
2022/02/08 05:50:25;;;;;;;7.63;1.97;;;3.80;99.90;;;;;;4167374;28;20464;-75
2022/02/08 05:52:45;;;;;;;7.37;2.17;;;3.80;99.90;;;;;;4164542;28;20483;-76
2022/02/08 05:54:47;;;;;;;8.77;2.47;;;3.80;99.90;;;;;;4165590;28;20548;-74
2022/02/08 05:56:53;;;;;;;8.60;2.00;;;3.90;99.90;;;;;;4182450;28;20464;-76
2022/02/08 05:58:56;;;;;;;8.23;1.97;;;3.90;99.90;;;;;;4179938;28;20488;-76
2022/02/08 06:00:58;;;;;;;6.80;2.00;;;3.90;99.90;;;;;;4177903;28;20976;-75
2022/02/08 06:03:03;;;;;;;7.00;1.83;;;3.90;99.90;;;;;;4177443;28;20461;-74
2022/02/08 06:05:09;;;;;;;8.33;1.70;;;4.00;99.90;;;;;;4179676;28;20469;-76
2022/02/08 06:07:13;;;;;;;8.13;1.80;;;4.00;99.90;;;;;;4191879;28;20480;-74
2022/02/08 06:09:17;;;;;;;4.47;2.10;;;4.00;99.90;;;;;;4188145;28;20479;-76
2022/02/08 06:11:19;;;;;;;8.73;1.80;;;4.00;99.90;;;;;;4178585;28;20516;-76
2022/02/08 06:13:21;;;;;;;12.27;2.00;;;4.00;99.90;;;;;;4180473;28;20564;-76
2022/02/08 06:15:26;;;;;;;10.17;1.87;;;4.10;99.90;;;;;;4170663;28;20924;-75
2022/02/08 06:17:28;;;;;;;7.87;2.13;;;4.10;99.90;;;;;;4173633;28;20472;-74
2022/02/08 06:19:33;;;;;;;9.30;2.67;;;4.10;99.90;;;;;;4176993;28;20494;-75
2022/02/08 06:21:34;;;;;;;5.57;1.63;;;4.10;99.90;;;;;;4169933;28;20528;-76
2022/02/08 06:23:36;;;;;;;7.37;1.80;;;4.10;99.90;;;;;;4173324;28;20970;-74
2022/02/08 06:25:38;;;;;;;11.60;1.93;;;4.10;99.90;;;;;;4176650;28;20511;-76
2022/02/08 06:27:40;;;;;;;5.17;1.93;;;4.10;99.90;;;;;;4182720;28;20528;-76
2022/02/08 06:29:42;;;;;;;8.37;1.87;;;4.10;99.90;;;;;;4175274;28;20450;-75
2022/02/08 06:31:46;;;;;;;5.97;1.83;;;4.20;99.90;;;;;;4175917;28;21089;-76
2022/02/08 06:33:47;;;;;;;8.07;1.70;;;4.10;99.90;;;;;;4174449;28;20472;-75
2022/02/08 06:35:50;;;;;;;6.07;1.90;;;4.20;99.90;;;;;;4175378;28;20460;-74
2022/02/08 06:37:52;;;;;;;8.67;2.00;;;4.20;99.90;;;;;;4178524;28;20491;-76
2022/02/08 06:39:53;;;;;;;6.70;2.03;;;4.20;99.90;;;;;;4177631;28;20457;-75
2022/02/08 06:41:55;;;;;;;7.20;2.00;;;4.20;99.90;;;;;;4172361;28;20540;-75
2022/02/08 06:43:57;;;;;;;8.37;1.97;;;4.20;99.90;;;;;;4171768;28;20446;-75
2022/02/08 06:46:00;;;;;;;6.07;1.87;;;4.20;99.90;;;;;;4167736;28;20457;-76
2022/02/08 06:48:05;;;;;;;10.17;2.03;;;4.20;99.90;;;;;;4173485;28;20479;-75
2022/02/08 06:50:07;;;;;;;8.20;2.00;;;4.00;99.90;;;;;;4176862;28;20453;-77
2022/02/08 06:52:09;;;;;;;8.07;2.43;;;4.20;99.90;;;;;;4172568;28;20898;-75
2022/02/08 06:54:11;;;;;;;7.63;1.93;;;4.20;99.90;;;;;;4172744;28;21006;-75
2022/02/08 06:56:13;;;;;;;9.73;1.90;;;4.20;99.90;;;;;;4171086;28;20453;-72
2022/02/08 06:58:16;;;;;;;8.43;2.00;;;4.20;99.90;;;;;;4172741;28;21006;-76
2022/02/08 07:00:21;;;;;;;8.00;2.40;;;4.20;99.90;;;;;;4176189;28;20903;-76
2022/02/08 07:02:23;;;;;;;10.17;2.00;;;4.30;99.90;;;;;;4171572;28;20466;-76
2022/02/08 07:04:26;;;;;;;8.33;2.10;;;4.30;99.90;;;;;;4175506;28;20496;-76
2022/02/08 07:06:28;;;;;;;11.57;2.33;;;4.30;99.90;;;;;;4172990;28;21211;-75
2022/02/08 07:08:30;;;;;;;9.07;2.60;;;4.30;99.90;;;;;;4173372;28;20472;-74
2022/02/08 07:10:33;;;;;;;7.20;2.10;;;4.30;99.90;;;;;;4173299;28;20481;-75
2022/02/08 07:12:35;;;;;;;10.10;2.00;;;4.40;99.90;;;;;;4167048;28;20484;-74
2022/02/08 07:14:36;;;;;;;5.63;1.97;;;4.40;99.90;;;;;;4171353;28;20476;-73
2022/02/08 07:16:38;;;;;;;8.27;2.00;;;4.40;99.90;;;;;;4175128;28;20461;-73
2022/02/08 07:18:40;;;;;;;6.03;1.80;;;4.40;99.90;;;;;;4173225;28;20481;-77
2022/02/08 07:20:44;;;;;;;4.43;1.90;;;4.40;99.90;;;;;;4174528;28;20469;-73
2022/02/08 07:22:45;;;;;;;5.60;1.77;;;4.40;99.90;;;;;;4169353;28;20456;-74
2022/02/08 07:24:47;;;;;;;3.70;1.50;;;4.40;99.90;;;;;;4173763;28;20461;-76
2022/02/08 07:26:51;;;;;;;8.27;1.90;;;4.40;99.90;;;;;;4171943;28;20522;-74
2022/02/08 07:28:54;;;;;;;11.70;1.80;;;4.40;99.90;;;;;;4173397;28;20557;-74
2022/02/08 07:31:02;;;;;;;7.23;2.00;;;4.40;99.90;;;;;;4172202;28;20869;-73
2022/02/08 07:33:03;;;;;;;10.53;2.00;;;4.50;99.90;;;;;;4173390;28;20523;-73
2022/02/08 07:35:19;;;;;;;6.90;1.77;;;4.50;99.90;;;;;;4171449;28;20468;-73
2022/02/08 07:37:34;;;;;;;6.67;1.70;;;4.50;99.90;;;;;;4171971;28;20583;-73
2022/02/08 07:39:39;;;;;;;7.83;1.90;;;4.50;99.90;;;;;;4169062;28;20484;-74
2022/02/08 07:41:42;;;;;;;8.33;2.10;;;4.50;99.90;;;;;;4172344;28;20514;-74
2022/02/08 07:43:49;;;;;;;7.77;1.87;;;4.50;99.90;;;;;;4172501;28;20464;-73
2022/02/08 07:45:50;;;;;;;7.30;1.87;;;4.40;99.90;;;;;;4170973;28;20950;-74
2022/02/08 07:47:59;;;;;;;4.90;1.77;;;4.40;99.90;;;;;;4169356;28;20984;-75
2022/02/08 07:50:01;;;;;;;10.33;1.67;;;4.40;99.90;;;;;;4173902;28;20460;-75
2022/02/08 07:52:04;;;;;;;5.53;1.57;;;4.40;99.90;;;;;;4173734;28;20471;-73
2022/02/08 07:54:08;;;;;;;6.87;1.97;;;4.40;99.90;;;;;;4172984;28;20469;-74
2022/02/08 07:56:12;;;;;;;5.13;1.77;;;4.40;99.90;;;;;;4173498;28;20480;-74
2022/02/08 07:58:13;;;;;;;7.03;1.47;;;4.40;99.90;;;;;;4175031;28;20543;-75
2022/02/08 08:00:16;;;;;;;6.37;1.80;;;4.40;99.90;;;;;;4173056;28;20465;-74
2022/02/08 08:02:18;;;;;;;5.90;1.80;;;4.50;99.90;;;;;;4172987;28;20518;-74
2022/02/08 08:04:20;;;;;;;6.90;2.07;;;4.50;99.90;;;;;;4168997;28;20945;-74
2022/02/08 08:06:21;;;;;;;9.70;1.87;;;4.50;99.90;;;;;;4169416;28;20464;-72
2022/02/08 08:08:23;;;;;;;7.03;2.27;;;4.50;99.90;;;;;;4171166;28;20519;-74
2022/02/08 08:10:31;;;;;;;7.13;1.90;;;4.50;99.90;;;;;;4169747;28;20483;-73
2022/02/08 08:12:34;;;;;;;4.70;1.60;;;4.50;99.90;;;;;;4171000;28;20964;-75
2022/02/08 08:14:38;;;;;;;4.63;1.60;;;4.70;99.90;;;;;;4170785;28;20505;-75
2022/02/08 08:16:54;;;;;;;5.13;1.50;;;4.90;99.90;;;;;;4172625;28;20733;-73
2022/02/08 08:19:00;;;;;;;8.63;1.70;;;4.60;99.90;;;;;;4171662;28;20499;-73
2022/02/08 08:21:02;;;;;;;9.60;1.80;;;4.60;99.90;;;;;;4172375;28;20765;-75
2022/02/08 08:23:03;;;;;;;7.20;1.50;;;4.70;99.90;;;;;;4171401;28;20464;-73
2022/02/08 08:25:09;;;;;;;6.37;1.40;;;4.70;99.90;;;;;;4173881;28;20460;-73
2022/02/08 08:27:12;;;;;;;4.27;1.40;;;4.70;99.90;;;;;;4173309;28;20454;-74
2022/02/08 08:29:14;;;;;;;5.77;1.93;;;4.80;99.90;;;;;;4170428;28;20470;-76
2022/02/08 08:31:16;;;;;;;6.33;1.73;;;4.80;99.90;;;;;;4173637;28;20476;-76
2022/02/08 08:33:22;;;;;;;7.57;1.53;;;4.80;99.90;;;;;;4171428;28;20966;-74
2022/02/08 08:35:23;;;;;;;4.27;1.40;;;4.90;99.90;;;;;;4171610;28;20469;-74
2022/02/08 08:37:26;;;;;;;5.83;1.50;;;5.00;99.90;;;;;;4172285;28;21004;-75
2022/02/08 08:39:34;;;;;;;6.27;1.60;;;4.90;99.90;;;;;;4172909;28;20488;-73
2022/02/08 08:41:41;;;;;;;4.13;1.70;;;5.00;99.90;;;;;;4166468;28;20998;-74
2022/02/08 08:44:00;;;;;;;6.67;1.33;;;5.00;99.90;;;;;;4171106;28;20581;-74
2022/02/08 08:48:41;;;;;;;4.77;1.47;;;5.10;99.90;;;;;;4170557;28;21028;-74
2022/02/08 08:50:59;;;;;;;5.70;1.37;;;5.10;99.90;;;;;;4171174;28;21242;-73
2022/02/08 08:53:06;;;;;;;3.27;1.17;;;5.10;99.90;;;;;;4169310;28;21061;-75
2022/02/08 08:55:10;;;;;;;6.10;1.30;;;5.10;99.90;;;;;;4167983;28;22090;-74
2022/02/08 08:57:18;;;;;;;3.37;1.33;;;5.20;99.90;;;;;;4169733;28;20490;-75
2022/02/08 08:59:22;;;;;;;4.10;1.33;;;5.20;99.90;;;;;;4168793;28;21022;-74
2022/02/08 09:01:23;;;;;;;5.80;1.40;;;5.20;99.90;;;;;;4172442;28;20485;-76
2022/02/08 09:03:25;;;;;;;6.17;1.10;;;5.30;99.90;;;;;;4170100;28;20465;-74
2022/02/08 09:05:29;;;;;;;7.10;1.40;;;6.00;99.90;;;;;;4169698;28;20473;-75
2022/02/08 09:07:32;;;;;;;5.43;1.50;;;5.30;99.90;;;;;;4171434;28;20486;-74
2022/02/08 09:09:38;;;;;;;2.87;1.20;;;5.30;99.90;;;;;;4169891;28;20472;-76
2022/02/08 09:14:04;;;;;;;4.57;1.50;;;5.40;99.90;;;;;;4169551;28;20573;-74
2022/02/08 09:16:19;;;;;;;2.23;1.10;;;5.50;99.90;;;;;;4169200;28;20478;-74
2022/02/08 09:18:58;;;;;;;4.67;1.23;;;6.10;99.90;;;;;;4170586;28;20494;-75
2022/02/08 09:23:43;;;;;;;7.30;1.30;;;5.60;99.90;;;;;;4161641;28;20445;-76
2022/02/08 09:25:55;;;;;;;4.10;1.27;;;5.60;99.90;;;;;;4172382;28;20465;-75
2022/02/08 09:28:08;;;;;;;3.90;1.17;;;5.70;99.90;;;;;;4175604;28;20462;-77
2022/02/08 09:30:14;;;;;;;4.33;1.80;;;5.70;99.90;;;;;;4173873;28;20515;-77
2022/02/08 09:32:21;;;;;;;5.30;1.30;;;5.80;99.90;;;;;;4174267;28;20465;-74
2022/02/08 09:34:26;;;;;;;2.37;1.17;;;5.90;99.90;;;;;;4173732;28;20466;-76
2022/02/08 09:36:28;;;;;;;3.33;1.30;;;5.90;99.90;;;;;;4173311;28;20511;-73
2022/02/08 09:38:36;;;;;;;5.73;1.10;;;5.80;99.90;;;;;;4173007;28;20461;-78
2022/02/08 09:40:38;;;;;;;3.10;1.17;;;5.80;99.90;;;;;;4174416;28;20521;-78
2022/02/08 09:42:41;;;;;;;8.70;1.30;;;5.80;99.90;;;;;;4174967;28;20466;-75
2022/02/08 09:44:43;;;;;;;4.00;1.30;;;5.90;99.90;;;;;;4169751;28;20694;-77
2022/02/08 09:46:45;;;;;;;6.13;1.23;;;5.90;99.90;;;;;;4171583;28;20485;-76
2022/02/08 09:48:55;;;;;;;3.53;1.20;;;5.90;99.90;;;;;;4175749;28;20446;-78
2022/02/08 09:50:57;;;;;;;5.30;1.50;;;5.80;99.90;;;;;;4174011;28;20911;-76
2022/02/08 09:53:01;;;;;;;6.13;1.20;;;6.20;99.90;;;;;;4172995;28;20503;-76
2022/02/08 09:55:04;;;;;;;7.27;1.43;;;5.90;99.90;;;;;;4174794;28;20553;-76
2022/02/08 09:57:06;;;;;;;4.67;1.20;;;5.90;99.90;;;;;;4174198;28;20462;-78
2022/02/08 09:59:08;;;;;;;4.47;1.17;;;5.90;99.90;;;;;;4173657;28;20503;-79
2022/02/08 10:01:11;;;;;;;4.00;1.30;;;5.90;99.90;;;;;;4175031;28;20494;-75
2022/02/08 10:03:16;;;;;;;10.43;1.77;;;5.90;99.90;;;;;;4174066;28;20564;-73
2022/02/08 10:05:19;;;;;;;2.93;0.90;;;5.90;99.90;;;;;;4174236;28;20500;-74
2022/02/08 10:07:22;;;;;;;3.97;1.37;;;5.80;99.90;;;;;;4174952;28;20489;-75
2022/02/08 10:09:31;;;;;;;4.53;1.20;;;5.90;99.90;;;;;;4175614;28;20561;-73
2022/02/08 10:11:42;;;;;;;3.30;1.17;;;5.90;99.90;;;;;;4175918;28;21230;-75
2022/02/08 10:13:57;;;;;;;4.83;1.53;;;6.00;99.90;;;;;;4173377;28;21021;-79
2022/02/08 10:23:12;;;;;;;4.93;1.43;;;6.20;99.90;;;;;;4221103;27;20673;-77
2022/02/08 10:25:23;;;;;;;4.53;1.37;;;6.30;99.90;;;;;;4220488;28;20851;-76
2022/02/08 10:27:30;;;;;;;5.03;1.50;;;6.30;99.90;;;;;;4221012;28;20545;-73
2022/02/08 10:29:42;;;;;;;4.13;1.33;;;6.30;99.90;;;;;;4221971;28;20472;-76
2022/02/08 10:38:50;;;;;;;4.97;1.30;;;6.50;99.90;;;;;;4186894;28;20460;-80
2022/02/08 10:40:55;;;;;;;2.50;1.20;;;6.50;99.90;;;;;;4188794;28;20450;-80
2022/02/08 10:42:59;;;;;;;5.63;1.50;;;6.60;99.90;;;;;;4186335;28;20949;-80
2022/02/08 10:45:01;;;;;;;3.57;1.10;;;6.60;99.90;;;;;;4174247;28;20537;-80
2022/02/08 10:47:04;;;;;;;3.17;1.00;;;6.70;99.90;;;;;;4172164;28;20464;-80
2022/02/08 10:49:07;;;;;;;3.87;1.23;;;6.60;99.90;;;;;;4173591;28;20466;-82
2022/02/08 10:51:10;;;;;;;3.47;1.27;;;6.80;99.90;;;;;;4170952;28;20991;-84
2022/02/08 10:53:13;;;;;;;3.37;1.17;;;6.80;99.90;;;;;;4173991;28;20475;-81
2022/02/08 10:57:47;;;;;;;6.33;1.77;;;7.00;99.90;;;;;;4174700;28;21027;-81
2022/02/08 10:59:54;;;;;;;2.50;1.20;;;7.10;99.90;;;;;;4174997;28;20691;-80
2022/02/08 11:02:03;;;;;;;4.23;1.30;;;7.10;99.90;;;;;;4173309;28;20475;-81
2022/02/08 11:04:11;;;;;;;4.00;1.67;;;7.20;99.90;;;;;;4170603;28;20519;-80
2022/02/08 11:06:20;;;;;;;2.43;1.47;;;7.20;99.90;;;;;;4167798;28;20526;-80
2022/02/08 11:08:38;;;;;;;3.13;1.20;;;7.30;99.90;;;;;;4171216;28;20613;-80
2022/02/08 11:11:00;;;;;;;4.27;1.10;;;7.30;99.90;;;;;;4167728;28;20570;-79
2022/02/08 11:13:25;;;;;;;5.13;1.10;;;7.30;99.90;;;;;;4169408;28;21363;-80
2022/02/08 11:15:37;;;;;;;3.37;1.27;;;7.40;99.90;;;;;;4168581;28;20497;-80
2022/02/08 11:22:26;;;;;;;2.17;1.33;;;7.50;99.90;;;;;;4163944;28;20525;-80
2022/02/08 11:24:38;;;;;;;2.50;1.03;;;7.50;99.90;;;;;;4170242;28;20483;-79
2022/02/08 11:26:44;;;;;;;5.13;1.60;;;7.50;99.90;;;;;;4169486;28;20487;-79
2022/02/08 11:28:49;;;;;;;3.77;1.30;;;7.50;99.90;;;;;;4169824;28;20855;-80
2022/02/08 11:31:01;;;;;;;3.70;1.40;;;7.50;99.90;;;;;;4167768;28;20463;-84
2022/02/08 11:33:15;;;;;;;1.97;1.30;;;7.40;99.90;;;;;;4168407;28;20461;-82
2022/02/08 11:43:08;;;;;;;3.70;1.50;;;7.40;99.90;;;;;;4126017;28;20520;-80
2022/02/08 11:45:41;;;;;;;4.13;1.40;;;7.50;99.90;;;;;;4160442;28;20510;-79
2022/02/08 11:48:08;;;;;;;3.93;1.20;;;7.50;99.90;;;;;;4158644;28;20541;-81
2022/02/08 11:50:41;;;;;;;3.63;1.50;;;7.50;99.90;;;;;;4159284;28;20935;-80
2022/02/08 11:55:28;;;;;;;3.60;1.33;;;7.60;99.90;;;;;;4155651;28;20568;-80
2022/02/08 12:00:11;;;;;;;5.73;1.20;;;7.70;99.90;;;;;;4159362;28;20460;-80
2022/02/08 12:05:01;;;;;;;4.47;1.70;;;7.70;99.90;;;;;;4151657;28;20535;-81
2022/02/08 12:07:07;;;;;;;2.77;1.20;;;7.70;99.90;;;;;;4159338;28;20469;-79
2022/02/08 12:09:16;;;;;;;4.20;1.40;;;7.70;99.90;;;;;;4159092;28;20958;-82
2022/02/08 12:11:33;;;;;;;4.13;1.50;;;7.70;99.90;;;;;;4158936;28;20465;-81
2022/02/08 12:33:07;;;;;;;3.53;1.03;;;7.90;99.90;;;;;;4251064;27;20305;-79
2022/02/08 12:35:29;;;;;;;2.40;1.20;;;7.90;99.90;;;;;;4222364;27;20550;-81
2022/02/08 12:50:16;;;;;;;3.73;1.33;;;8.10;99.90;;;;;;4160274;28;20461;-80
2022/02/08 12:52:58;;;;;;;2.07;1.10;;;8.20;99.90;;;;;;4162080;28;20487;-80
2022/02/08 12:55:13;;;;;;;5.07;1.30;;;8.30;99.90;;;;;;4159128;28;21013;-80
2022/02/08 12:57:28;;;;;;;2.40;1.10;;;8.30;99.90;;;;;;4159960;28;20510;-79
2022/02/08 13:04:39;;;;;;;1.43;1.00;;;8.30;99.90;;;;;;4155953;28;20476;-79
2022/02/08 14:03:36;;;;;;;2.50;1.07;;;8.60;99.90;;;;;;4150951;28;20969;-80
2022/02/08 14:05:55;;;;;;;1.87;1.10;;;8.70;99.90;;;;;;4148280;28;20461;-80
2022/02/08 14:08:12;;;;;;;1.70;0.83;;;8.70;99.90;;;;;;4146704;28;20501;-80
2022/02/08 14:10:23;;;;;;;3.27;0.93;;;8.70;99.90;;;;;;4146229;28;20420;-80
2022/02/08 14:13:06;;;;;;;1.53;1.13;;;8.80;99.90;;;;;;4145884;28;20585;-80
2022/02/08 14:15:29;;;;;;;5.73;1.20;;;8.70;99.90;;;;;;4148413;28;20211;-80
2022/02/08 14:17:39;;;;;;;9.03;1.53;;;8.70;99.90;;;;;;4147739;28;20286;-81
2022/02/08 14:19:48;;;;;;;4.37;1.23;;;8.80;99.90;;;;;;4143913;28;20537;-81
2022/02/08 14:21:57;;;;;;;4.33;1.30;;;8.80;99.90;;;;;;4144167;28;20890;-79
2022/02/08 14:24:13;;;;;;;4.00;1.17;;;8.80;99.90;;;;;;4145060;28;20235;-80
2022/02/08 14:31:03;;;;;;;2.33;1.10;;;8.70;99.90;;;;;;4154228;28;20596;-80
2022/02/08 14:33:14;;;;;;;1.63;1.07;;;8.70;99.90;;;;;;4151622;28;20454;-81
2022/02/08 15:05:54;;;;;;;4.07;1.77;;;8.60;99.90;;;;;;4146813;28;20454;-79